createdAt,value
2023-04-18T00:00:17.886Z,101208.13
2023-04-18T00:02:49.146Z,101211.31
2023-04-18T00:05:21.210Z,101209.06
2023-04-18T00:07:52.995Z,101218.50
2023-04-18T00:10:24.479Z,101216.88
2023-04-18T00:12:55.980Z,101217.38
2023-04-18T00:15:27.375Z,101217.00
2023-04-18T00:17:58.925Z,101214.59
2023-04-18T00:20:30.848Z,101216.72
2023-04-18T00:23:02.901Z,101206.38
2023-04-18T00:25:36.780Z,101209.75
2023-04-18T00:28:08.148Z,101216.47
2023-04-18T00:30:39.178Z,101221.50
2023-04-18T00:33:11.165Z,101223.16
2023-04-18T00:35:42.902Z,101220.53
2023-04-18T00:38:14.435Z,101218.91
2023-04-18T00:40:49.154Z,101225.72
2023-04-18T00:43:23.659Z,101225.84
2023-04-18T00:45:55.173Z,101223.41
2023-04-18T00:48:27.441Z,101220.84
2023-04-18T00:50:59.168Z,101221.75
2023-04-18T00:53:31.908Z,101215.28
2023-04-18T00:56:02.883Z,101207.06
2023-04-18T00:58:34.942Z,101205.00
2023-04-18T01:01:06.843Z,101206.69
2023-04-18T01:03:38.611Z,101197.13
2023-04-18T01:06:11.658Z,101207.97
2023-04-18T01:08:44.523Z,101194.28
2023-04-18T01:11:15.758Z,101189.09
2023-04-18T01:14:01.713Z,101192.69
2023-04-18T01:16:39.762Z,101196.47
2023-04-18T01:19:12.586Z,101195.66
2023-04-18T01:21:45.940Z,101194.88
2023-04-18T01:24:18.918Z,101186.13
2023-04-18T01:26:51.725Z,101212.06
2023-04-18T01:29:23.646Z,101195.41
2023-04-18T01:31:55.468Z,101193.56
2023-04-18T01:34:26.669Z,101200.50
2023-04-18T01:36:58.184Z,101199.25
2023-04-18T01:39:30.377Z,101182.56
2023-04-18T01:42:03.061Z,101193.03
2023-04-18T01:44:34.322Z,101192.63
2023-04-18T01:47:05.992Z,101185.75
2023-04-18T01:49:37.011Z,101185.53
2023-04-18T01:52:08.205Z,101191.38
2023-04-18T01:54:39.006Z,101186.97
2023-04-18T01:57:10.236Z,101180.94
2023-04-18T01:59:41.657Z,101183.03
2023-04-18T02:02:12.738Z,101190.97
2023-04-18T02:04:43.726Z,101174.28
2023-04-18T02:07:15.039Z,101176.81
2023-04-18T02:09:46.854Z,101177.31
2023-04-18T02:12:18.732Z,101177.72
2023-04-18T02:14:54.610Z,101178.13
2023-04-18T02:17:26.099Z,101168.13
2023-04-18T02:19:58.462Z,101174.75
2023-04-18T02:22:30.532Z,101168.06
2023-04-18T02:25:05.269Z,101163.03
2023-04-18T02:27:35.956Z,101153.44
2023-04-18T02:30:08.308Z,101159.75
2023-04-18T02:32:40.077Z,101148.53
